createdAt,value
2017-11-24T00:00:50.346Z,0
2017-11-24T00:02:00.345Z,0
2017-11-24T00:03:10.358Z,0
2017-11-24T00:04:20.095Z,0
2017-11-24T00:05:29.869Z,0
2017-11-24T00:06:39.873Z,0
2017-11-24T00:07:49.607Z,0
2017-11-24T00:08:59.610Z,0
2017-11-24T00:10:09.346Z,0
2017-11-24T00:11:19.351Z,0
2017-11-24T00:12:29.111Z,0
2017-11-24T00:13:40.869Z,0
2017-11-24T00:14:50.917Z,0
2017-11-24T00:16:00.663Z,0
2017-11-24T00:17:10.396Z,0
2017-11-24T00:18:20.140Z,0
2017-11-24T00:19:30.157Z,0
2017-11-24T00:20:40.180Z,0
2017-11-24T00:21:50.186Z,0
2017-11-24T00:22:59.925Z,0
2017-11-24T00:24:09.949Z,0
2017-11-24T00:25:19.418Z,0
2017-11-24T00:26:29.430Z,0
2017-11-24T00:27:39.434Z,0
2017-11-24T00:28:49.472Z,0
2017-11-24T00:29:59.482Z,0
2017-11-24T00:31:09.510Z,0
2017-11-24T00:32:19.525Z,0
2017-11-24T00:33:29.536Z,0
2017-11-24T00:34:39.544Z,0
2017-11-24T00:35:49.555Z,0
2017-11-24T00:36:59.622Z,0
2017-11-24T00:38:09.091Z,0
2017-11-24T00:39:18.834Z,0
2017-11-24T00:40:28.841Z,0
2017-11-24T00:41:38.846Z,0
2017-11-24T00:42:48.859Z,0
2017-11-24T00:43:58.867Z,0
2017-11-24T00:45:08.899Z,0
2017-11-24T00:46:18.640Z,0
2017-11-24T00:47:28.371Z,0
2017-11-24T00:48:38.380Z,0
2017-11-24T00:49:48.118Z,0
2017-11-24T00:50:58.134Z,0
2017-11-24T00:52:07.881Z,0
2017-11-24T00:53:17.891Z,0
2017-11-24T00:54:27.912Z,0
2017-11-24T00:55:37.916Z,0
2017-11-24T00:56:47.916Z,0
2017-11-24T00:57:57.927Z,0
2017-11-24T00:59:07.941Z,0
2017-11-24T01:00:17.680Z,0
2017-11-24T01:01:27.152Z,0
2017-11-24T01:02:37.165Z,0
2017-11-24T01:03:46.901Z,0
2017-11-24T01:04:56.908Z,0
2017-11-24T01:06:06.653Z,0
2017-11-24T01:07:16.661Z,0
2017-11-24T01:08:26.692Z,0
2017-11-24T01:09:36.713Z,0
2017-11-24T01:10:46.735Z,0
2017-11-24T01:11:56.747Z,0
2017-11-24T01:13:06.758Z,0
2017-11-24T01:14:16.761Z,0
2017-11-24T01:15:26.769Z,0
2017-11-24T01:16:36.272Z,0
2017-11-24T01:17:46.015Z,0
2017-11-24T01:18:56.025Z,0
2017-11-24T01:20:06.028Z,0
2017-11-24T01:21:16.057Z,0
2017-11-24T01:22:26.070Z,0
2017-11-24T01:23:36.077Z,0
2017-11-24T01:24:46.098Z,0
2017-11-24T01:25:55.599Z,0
2017-11-24T01:27:05.337Z,0
2017-11-24T01:28:15.356Z,0
2017-11-24T01:29:25.361Z,0
2017-11-24T01:30:35.368Z,0
2017-11-24T01:31:45.371Z,0
2017-11-24T01:32:55.398Z,0
2017-11-24T01:34:05.426Z,0
2017-11-24T01:35:15.438Z,0
2017-11-24T01:36:25.435Z,0
2017-11-24T01:37:35.173Z,0
2017-11-24T01:38:45.183Z,0
2017-11-24T01:39:55.202Z,0
2017-11-24T01:41:05.202Z,0
2017-11-24T01:42:15.203Z,0
2017-11-24T01:43:24.945Z,0
2017-11-24T01:44:34.954Z,0
2017-11-24T01:45:44.419Z,0
2017-11-24T01:46:54.440Z,0
2017-11-24T01:48:04.443Z,0
2017-11-24T01:49:14.452Z,0
2017-11-24T01:50:24.456Z,0
2017-11-24T01:51:34.204Z,0
2017-11-24T01:52:48.209Z,0
2017-11-24T01:53:58.223Z,0
2017-11-24T01:55:08.225Z,0
2017-11-24T01:56:18.234Z,0
2017-11-24T01:57:28.235Z,0
2017-11-24T01:58:37.972Z,0
2017-11-24T01:59:47.991Z,0
2017-11-24T02:00:57.729Z,0
2017-11-24T02:02:07.739Z,0
2017-11-24T02:03:17.473Z,0
2017-11-24T02:04:27.519Z,0
2017-11-24T02:05:37.528Z,0
2017-11-24T02:06:47.546Z,0
2017-11-24T02:07:57.558Z,0
2017-11-24T02:09:07.561Z,0
2017-11-24T02:10:17.310Z,0
2017-11-24T02:11:27.062Z,0
2017-11-24T02:12:37.070Z,0
2017-11-24T02:13:47.098Z,0
2017-11-24T02:14:56.830Z,0
2017-11-24T02:16:06.847Z,0
2017-11-24T02:17:16.871Z,0
2017-11-24T02:18:26.896Z,0
2017-11-24T02:19:36.651Z,0
2017-11-24T02:20:46.393Z,0
2017-11-24T02:21:56.405Z,0
2017-11-24T02:23:06.191Z,0
2017-11-24T02:24:15.671Z,0
2017-11-24T02:25:25.674Z,0
2017-11-24T02:26:35.692Z,0
2017-11-24T02:27:45.715Z,0
2017-11-24T02:28:55.749Z,0
2017-11-24T02:30:05.494Z,0
2017-11-24T02:31:15.580Z,0
2017-11-24T02:32:25.633Z,0
2017-11-24T02:33:35.655Z,0
2017-11-24T02:34:45.688Z,0
2017-11-24T02:35:55.705Z,0
2017-11-24T02:37:05.741Z,0
2017-11-24T02:38:15.794Z,0
2017-11-24T02:39:25.801Z,0
2017-11-24T02:40:35.837Z,0
2017-11-24T02:41:45.849Z,0
2017-11-24T02:42:55.882Z,0
2017-11-24T02:44:05.906Z,0
2017-11-24T02:45:15.912Z,0
2017-11-24T02:46:25.919Z,0
2017-11-24T02:47:35.956Z,0
2017-11-24T02:48:45.971Z,0
2017-11-24T02:49:56.004Z,0
2017-11-24T02:51:06.037Z,0
2017-11-24T02:52:15.771Z,0
2017-11-24T02:53:25.824Z,0
2017-11-24T02:54:35.846Z,0
2017-11-24T02:55:45.878Z,0
2017-11-24T02:56:55.612Z,0
2017-11-24T02:58:05.626Z,0
2017-11-24T02:59:15.637Z,0
2017-11-24T03:00:25.381Z,0
2017-11-24T03:01:35.385Z,0
2017-11-24T03:02:45.122Z,0
2017-11-24T03:03:55.140Z,0
2017-11-24T03:05:04.885Z,0
2017-11-24T03:06:14.888Z,0
2017-11-24T03:07:24.894Z,0
2017-11-24T03:08:34.902Z,0
2017-11-24T03:09:44.909Z,0
2017-11-24T03:10:54.909Z,0
2017-11-24T03:12:04.922Z,0
2017-11-24T03:13:14.926Z,0
2017-11-24T03:14:24.656Z,0
2017-11-24T03:15:34.672Z,0
2017-11-24T03:16:44.713Z,0
2017-11-24T03:17:54.744Z,0
2017-11-24T03:19:04.486Z,0
2017-11-24T03:20:14.503Z,0
2017-11-24T03:21:24.513Z,0
2017-11-24T03:22:34.536Z,0
2017-11-24T03:23:44.276Z,0
2017-11-24T03:24:53.744Z,0
2017-11-24T03:26:03.552Z,0
2017-11-24T03:27:13.578Z,0
2017-11-24T03:28:23.311Z,0
2017-11-24T03:29:33.055Z,0
2017-11-24T03:30:43.102Z,0
2017-11-24T03:31:53.115Z,0
2017-11-24T03:33:02.851Z,0
2017-11-24T03:34:12.861Z,0
2017-11-24T03:35:22.876Z,0
2017-11-24T03:36:32.885Z,0
2017-11-24T03:37:42.617Z,0
2017-11-24T03:38:52.623Z,0
2017-11-24T03:40:02.630Z,0
2017-11-24T03:41:12.093Z,0
2017-11-24T03:42:22.110Z,0
2017-11-24T03:43:32.116Z,0
2017-11-24T03:44:42.135Z,0
2017-11-24T03:45:52.141Z,0
2017-11-24T03:47:02.154Z,0
2017-11-24T03:48:12.175Z,0
2017-11-24T03:49:22.181Z,0
2017-11-24T03:50:32.181Z,0
2017-11-24T03:51:42.186Z,0
2017-11-24T03:52:51.964Z,0
2017-11-24T03:54:01.703Z,0
2017-11-24T03:55:11.719Z,0
2017-11-24T03:56:21.724Z,0
2017-11-24T03:57:31.462Z,0
2017-11-24T03:58:41.469Z,0
2017-11-24T03:59:51.473Z,0
2017-11-24T04:03:36.485Z,0
2017-11-24T04:04:46.496Z,0
2017-11-24T04:05:56.229Z,0
2017-11-24T04:07:05.972Z,0
2017-11-24T04:08:15.713Z,0
2017-11-24T04:09:25.712Z,0
2017-11-24T04:10:35.721Z,0
2017-11-24T04:11:45.455Z,0
2017-11-24T04:12:55.467Z,0
2017-11-24T04:14:05.496Z,0
2017-11-24T04:15:15.506Z,0
2017-11-24T04:16:25.526Z,0
2017-11-24T04:17:35.531Z,0
2017-11-24T04:18:45.544Z,0
2017-11-24T04:19:55.561Z,0
2017-11-24T04:21:05.583Z,0
2017-11-24T04:22:15.586Z,0
2017-11-24T04:23:25.592Z,0
2017-11-24T04:24:35.611Z,0
2017-11-24T04:25:45.620Z,0
2017-11-24T04:26:55.673Z,0
2017-11-24T04:28:05.408Z,0
2017-11-24T04:29:15.420Z,0
2017-11-24T04:30:25.155Z,0
2017-11-24T04:31:35.168Z,0
2017-11-24T04:32:45.177Z,0
2017-11-24T04:33:55.197Z,0
2017-11-24T04:35:04.668Z,0
2017-11-24T04:36:14.696Z,0
2017-11-24T04:37:24.703Z,0
2017-11-24T04:38:34.459Z,0
2017-11-24T04:39:44.216Z,0
2017-11-24T04:40:54.232Z,0
2017-11-24T04:42:04.241Z,0
2017-11-24T04:43:13.990Z,0
2017-11-24T04:44:24.017Z,0
2017-11-24T04:45:34.024Z,0
2017-11-24T04:46:44.092Z,0
2017-11-24T04:47:54.102Z,0
2017-11-24T04:49:04.110Z,0
2017-11-24T04:50:13.850Z,0
2017-11-24T04:51:23.857Z,0
2017-11-24T04:52:33.878Z,0
2017-11-24T04:53:43.620Z,0
2017-11-24T04:54:53.351Z,0
2017-11-24T04:56:03.355Z,0
2017-11-24T04:57:13.360Z,0
2017-11-24T04:58:23.380Z,0
2017-11-24T04:59:33.386Z,0
2017-11-24T05:00:43.152Z,0
2017-11-24T05:01:53.172Z,0
2017-11-24T05:03:03.185Z,0
2017-11-24T05:04:13.198Z,0
2017-11-24T05:05:22.953Z,0
2017-11-24T05:06:32.956Z,0
2017-11-24T05:07:42.974Z,0
2017-11-24T05:08:52.986Z,0
2017-11-24T05:10:02.999Z,0
2017-11-24T05:11:12.730Z,0
2017-11-24T05:12:22.466Z,0
2017-11-24T05:13:32.502Z,0
2017-11-24T05:14:42.508Z,0
2017-11-24T05:15:52.522Z,0
2017-11-24T05:17:02.527Z,0
2017-11-24T05:18:12.531Z,0
2017-11-24T05:19:22.542Z,0
2017-11-24T05:20:32.290Z,0
2017-11-24T05:21:42.023Z,0
2017-11-24T05:22:51.764Z,0
2017-11-24T05:24:01.794Z,0
2017-11-24T05:25:11.548Z,0
2017-11-24T05:26:21.550Z,0
2017-11-24T05:27:31.284Z,0
2017-11-24T05:28:41.299Z,0
2017-11-24T05:29:51.307Z,0
2017-11-24T05:31:01.321Z,0
2017-11-24T05:32:10.787Z,0
2017-11-24T05:33:20.803Z,0
2017-11-24T05:34:30.806Z,0
2017-11-24T05:35:40.574Z,0
2017-11-24T05:36:50.584Z,0
2017-11-24T05:38:00.327Z,0
2017-11-24T05:39:10.353Z,0
2017-11-24T05:40:20.363Z,0
2017-11-24T05:41:30.107Z,0
2017-11-24T05:42:40.119Z,0
2017-11-24T05:43:49.858Z,0
2017-11-24T05:44:59.860Z,0
2017-11-24T05:46:09.879Z,0
2017-11-24T05:47:19.889Z,0
2017-11-24T05:48:29.629Z,0
2017-11-24T05:49:39.391Z,0
2017-11-24T05:50:49.422Z,0
2017-11-24T05:51:59.436Z,0
2017-11-24T05:53:09.444Z,0
2017-11-24T05:54:19.459Z,0
2017-11-24T05:55:29.465Z,0
2017-11-24T05:56:39.486Z,0
2017-11-24T05:57:49.502Z,0
2017-11-24T05:58:59.508Z,0
2017-11-24T06:00:09.248Z,0
2017-11-24T06:01:19.266Z,0
2017-11-24T06:02:29.280Z,0
2017-11-24T06:03:39.352Z,0
2017-11-24T06:04:49.304Z,0
2017-11-24T06:05:59.917Z,0
2017-11-24T06:07:10.422Z,0
2017-11-24T06:08:20.059Z,0
2017-11-24T06:09:30.342Z,0
2017-11-24T06:10:40.699Z,0
2017-11-24T06:11:52.253Z,0
2017-11-24T06:13:04.249Z,0
2017-11-24T06:14:14.804Z,0
2017-11-24T06:15:26.288Z,0
2017-11-24T06:16:36.447Z,0
2017-11-24T06:17:46.587Z,0
2017-11-24T06:18:56.434Z,0
2017-11-24T06:20:06.762Z,0
2017-11-24T06:21:17.438Z,0
2017-11-24T06:22:27.442Z,0
2017-11-24T06:23:40.114Z,0
2017-11-24T06:24:50.137Z,0
2017-11-24T06:26:00.140Z,0
2017-11-24T06:27:09.879Z,0
2017-11-24T06:28:19.894Z,0
2017-11-24T06:29:31.569Z,0
2017-11-24T06:30:42.627Z,0
2017-11-24T06:31:52.891Z,0
2017-11-24T06:33:03.878Z,0
2017-11-24T06:34:13.988Z,0
2017-11-24T06:35:24.459Z,0
2017-11-24T06:36:35.237Z,0
2017-11-24T06:37:45.008Z,0
2017-11-24T06:38:54.828Z,0
2017-11-24T06:40:05.333Z,0
2017-11-24T06:41:15.627Z,0
2017-11-24T06:42:26.122Z,0
2017-11-24T06:43:37.206Z,0
2017-11-24T06:44:48.432Z,0
2017-11-24T06:46:00.746Z,0
2017-11-24T06:47:12.002Z,0
2017-11-24T06:48:22.941Z,0
2017-11-24T06:49:32.834Z,0
2017-11-24T06:50:43.418Z,0
2017-11-24T06:51:53.754Z,0
2017-11-24T06:53:04.221Z,0
2017-11-24T06:54:14.359Z,0
2017-11-24T06:55:25.085Z,0
2017-11-24T06:56:34.829Z,0
2017-11-24T06:57:44.576Z,0
2017-11-24T06:58:54.331Z,0
2017-11-24T07:00:04.368Z,0
2017-11-24T07:01:15.340Z,0
2017-11-24T07:02:26.083Z,0
2017-11-24T07:03:36.683Z,0
2017-11-24T07:04:47.018Z,0
2017-11-24T07:05:57.105Z,0
2017-11-24T07:07:06.876Z,0
2017-11-24T07:08:17.004Z,0
2017-11-24T07:09:27.333Z,0
2017-11-24T07:10:38.059Z,0
2017-11-24T07:11:48.155Z,0
2017-11-24T07:12:58.287Z,0
2017-11-24T07:14:08.175Z,0
2017-11-24T07:15:18.585Z,0
2017-11-24T07:16:29.764Z,0
2017-11-24T07:17:40.901Z,0
2017-11-24T07:18:51.298Z,0
2017-11-24T07:20:02.395Z,0
2017-11-24T07:21:14.342Z,0
2017-11-24T07:22:25.476Z,0
2017-11-24T07:23:36.121Z,0
2017-11-24T07:24:46.347Z,0
2017-11-24T07:25:56.435Z,0
2017-11-24T07:27:06.530Z,0
2017-11-24T07:28:16.977Z,5
2017-11-24T07:29:27.658Z,5
2017-11-24T07:30:37.669Z,5
2017-11-24T07:31:47.424Z,5
2017-11-24T07:32:57.436Z,5
2017-11-24T07:34:07.190Z,5
2017-11-24T07:35:17.805Z,5
2017-11-24T07:36:28.444Z,5
2017-11-24T07:37:39.148Z,10
2017-11-24T07:38:50.301Z,10
2017-11-24T07:40:00.572Z,10
2017-11-24T07:41:10.603Z,10
2017-11-24T07:42:20.357Z,10
2017-11-24T07:43:30.101Z,15
2017-11-24T07:44:40.113Z,15
2017-11-24T07:45:49.866Z,15
2017-11-24T07:46:59.327Z,15
2017-11-24T07:48:09.331Z,20
2017-11-24T07:49:19.337Z,20
2017-11-24T07:50:29.358Z,20
2017-11-24T07:51:39.365Z,25
2017-11-24T07:52:49.378Z,25
2017-11-24T07:53:59.386Z,25
2017-11-24T07:55:09.125Z,25
2017-11-24T07:56:19.136Z,30
2017-11-24T07:57:29.142Z,30
2017-11-24T07:58:39.149Z,30
2017-11-24T07:59:49.169Z,30
2017-11-24T08:00:59.205Z,35
2017-11-24T08:02:08.351Z,35
2017-11-24T08:03:18.100Z,35
2017-11-24T08:04:28.110Z,35
2017-11-24T08:05:38.121Z,35
2017-11-24T08:06:47.871Z,40
2017-11-24T08:07:57.614Z,40
2017-11-24T08:09:09.651Z,40
2017-11-24T08:10:19.673Z,45
2017-11-24T08:11:29.684Z,45
2017-11-24T08:12:39.718Z,45
2017-11-24T08:13:49.458Z,45
2017-11-24T08:14:59.468Z,50
2017-11-24T08:16:09.218Z,50
2017-11-24T08:17:18.969Z,50
2017-11-24T08:18:28.971Z,50
2017-11-24T08:19:38.708Z,45
2017-11-24T08:20:48.724Z,45
2017-11-24T08:21:58.472Z,45
2017-11-24T08:23:08.498Z,50
2017-11-24T08:24:18.506Z,50
2017-11-24T08:25:28.519Z,45
2017-11-24T08:26:38.523Z,45
2017-11-24T08:27:48.536Z,45
2017-11-24T08:28:58.269Z,45
2017-11-24T08:30:08.295Z,45
2017-11-24T08:31:18.040Z,50
2017-11-24T08:32:27.792Z,50
2017-11-24T08:33:37.527Z,50
2017-11-24T08:34:46.724Z,50
2017-11-24T08:35:56.750Z,55
2017-11-24T08:37:06.493Z,60
2017-11-24T08:38:16.509Z,60
2017-11-24T08:39:26.522Z,60
2017-11-24T08:40:36.530Z,60
2017-11-24T08:41:46.534Z,65
2017-11-24T08:42:56.553Z,70
2017-11-24T08:44:06.562Z,70
2017-11-24T08:45:16.591Z,70
2017-11-24T08:46:26.605Z,70
2017-11-24T08:47:36.606Z,75
2017-11-24T08:48:46.342Z,75
2017-11-24T08:49:56.361Z,75
2017-11-24T08:51:06.364Z,70
2017-11-24T08:52:16.099Z,70
2017-11-24T08:53:26.117Z,70
2017-11-24T08:54:36.137Z,70
2017-11-24T08:55:46.345Z,70
2017-11-24T08:56:56.354Z,75
2017-11-24T08:58:06.368Z,75
2017-11-24T08:59:16.393Z,80
2017-11-24T09:00:26.402Z,85
2017-11-24T09:01:36.472Z,85
2017-11-24T09:02:46.481Z,85
2017-11-24T09:03:56.218Z,95
2017-11-24T09:05:05.975Z,95
2017-11-24T09:06:15.731Z,95
2017-11-24T09:07:25.739Z,95
2017-11-24T09:08:35.758Z,100
2017-11-24T09:09:45.501Z,100
2017-11-24T09:10:55.514Z,100
2017-11-24T09:12:05.527Z,100
2017-11-24T09:13:15.282Z,100
2017-11-24T09:14:25.304Z,105
2017-11-24T09:15:35.311Z,105
2017-11-24T09:16:44.786Z,105
2017-11-24T09:17:54.794Z,105
2017-11-24T09:19:04.534Z,110
2017-11-24T09:20:14.542Z,110
2017-11-24T09:21:24.548Z,115
2017-11-24T09:22:34.603Z,115
2017-11-24T09:23:44.609Z,115
2017-11-24T09:24:54.622Z,115
2017-11-24T09:26:04.094Z,120
2017-11-24T09:27:13.828Z,120
2017-11-24T09:28:23.841Z,120
2017-11-24T09:29:33.852Z,120
2017-11-24T09:30:43.860Z,120
2017-11-24T09:31:53.348Z,120
2017-11-24T09:33:03.359Z,125
2017-11-24T09:34:13.377Z,120
2017-11-24T09:35:23.397Z,120
2017-11-24T09:36:33.408Z,115
2017-11-24T09:37:43.152Z,115
2017-11-24T09:38:52.912Z,115
2017-11-24T09:40:02.653Z,115
2017-11-24T09:41:12.690Z,115
2017-11-24T09:42:22.427Z,115
2017-11-24T09:43:32.457Z,115
2017-11-24T09:44:42.208Z,120
2017-11-24T09:45:51.942Z,120
2017-11-24T09:47:01.979Z,120
2017-11-24T09:48:12.657Z,120
2017-11-24T09:49:22.401Z,120
2017-11-24T09:50:31.871Z,120
2017-11-24T09:51:41.608Z,120
2017-11-24T09:52:51.625Z,120
2017-11-24T09:54:01.382Z,120
2017-11-24T09:55:11.414Z,120
2017-11-24T09:56:20.880Z,125
2017-11-24T09:57:30.631Z,125
2017-11-24T09:58:39.825Z,125
2017-11-24T09:59:49.841Z,125
2017-11-24T10:00:59.870Z,125
2017-11-24T10:02:09.612Z,125
2017-11-24T10:03:19.346Z,125
2017-11-24T10:04:29.151Z,125
2017-11-24T10:05:38.884Z,125
2017-11-24T10:06:48.365Z,125
2017-11-24T10:07:58.372Z,125
2017-11-24T10:09:08.383Z,125
2017-11-24T10:10:18.120Z,125
2017-11-24T10:11:28.136Z,130
2017-11-24T10:12:37.883Z,120
2017-11-24T10:13:47.887Z,125
2017-11-24T10:14:57.373Z,130
2017-11-24T10:16:07.388Z,130
2017-11-24T10:17:20.628Z,130
2017-11-24T10:18:30.636Z,130
2017-11-24T10:19:40.371Z,135
2017-11-24T10:20:50.381Z,135
2017-11-24T10:22:00.129Z,135
2017-11-24T10:23:09.864Z,135
2017-11-24T10:24:19.870Z,135
2017-11-24T10:25:29.613Z,205
2017-11-24T10:26:39.619Z,400
2017-11-24T10:27:49.633Z,490
2017-11-24T10:28:59.644Z,525
2017-11-24T10:30:09.663Z,535
2017-11-24T10:31:19.737Z,480
2017-11-24T10:32:29.767Z,405
2017-11-24T10:33:39.787Z,365
2017-11-24T10:34:49.798Z,330
2017-11-24T10:35:59.810Z,320
2017-11-24T10:37:09.820Z,315
2017-11-24T10:38:19.833Z,305
2017-11-24T10:39:29.844Z,295
2017-11-24T10:40:39.589Z,265
2017-11-24T10:41:49.606Z,240
2017-11-24T10:42:59.396Z,210
2017-11-24T10:44:09.411Z,200
2017-11-24T10:45:19.422Z,185
2017-11-24T10:46:29.437Z,170
2017-11-24T10:47:39.213Z,175
2017-11-24T10:48:49.228Z,175
2017-11-24T10:49:59.243Z,180
2017-11-24T10:51:09.255Z,190
2017-11-24T10:52:19.274Z,200
2017-11-24T10:53:29.283Z,195
2017-11-24T10:54:39.027Z,205
2017-11-24T10:55:48.227Z,195
2017-11-24T10:56:57.698Z,200
2017-11-24T10:58:07.175Z,205
2017-11-24T10:59:17.186Z,215
2017-11-24T11:00:27.259Z,220
2017-11-24T11:01:37.000Z,245
2017-11-24T11:02:46.750Z,245
2017-11-24T11:03:56.755Z,300
2017-11-24T11:05:06.493Z,370
2017-11-24T11:06:16.238Z,370
2017-11-24T11:07:26.248Z,370
2017-11-24T11:08:36.254Z,370
2017-11-24T11:09:45.996Z,370
2017-11-24T11:10:56.000Z,365
2017-11-24T11:12:06.044Z,370
2017-11-24T11:13:16.062Z,365
2017-11-24T11:14:25.808Z,355
2017-11-24T11:15:35.831Z,355
2017-11-24T11:16:45.843Z,350
2017-11-24T11:17:55.582Z,350
2017-11-24T11:19:05.324Z,345
2017-11-24T11:20:15.064Z,340
2017-11-24T11:21:25.069Z,345
2017-11-24T11:22:35.091Z,345
2017-11-24T11:23:44.853Z,340
2017-11-24T11:24:54.328Z,345
2017-11-24T11:26:04.066Z,345
2017-11-24T11:27:14.084Z,350
2017-11-24T11:28:23.821Z,350
2017-11-24T11:29:33.837Z,350
2017-11-24T11:30:43.865Z,350
2017-11-24T11:31:53.613Z,350
2017-11-24T11:33:03.642Z,350
2017-11-24T11:34:13.394Z,350
2017-11-24T11:35:23.419Z,350
2017-11-24T11:36:33.435Z,350
2017-11-24T11:37:43.185Z,355
2017-11-24T11:38:53.194Z,355
2017-11-24T11:40:02.938Z,355
2017-11-24T11:41:12.682Z,355
2017-11-24T11:42:22.695Z,355
2017-11-24T11:43:32.463Z,355
2017-11-24T11:44:42.484Z,355
2017-11-24T11:45:52.498Z,355
2017-11-24T11:47:02.512Z,355
2017-11-24T11:48:12.536Z,355
2017-11-24T11:49:22.560Z,355
2017-11-24T11:50:32.613Z,360
2017-11-24T11:51:42.114Z,355
2017-11-24T11:52:52.136Z,360
2017-11-24T11:54:02.157Z,360
2017-11-24T11:55:12.179Z,365
2017-11-24T11:56:22.762Z,365
2017-11-24T11:57:32.500Z,365
2017-11-24T11:58:42.513Z,365
2017-11-24T11:59:52.532Z,365
2017-11-24T12:01:02.278Z,365
2017-11-24T12:02:12.291Z,375
2017-11-24T12:03:22.320Z,370
2017-11-24T12:04:32.057Z,375
2017-11-24T12:05:41.807Z,380
2017-11-24T12:06:51.568Z,370
2017-11-24T12:08:01.839Z,375
2017-11-24T12:09:11.863Z,380
2017-11-24T12:10:21.885Z,380
2017-11-24T12:11:31.914Z,380
2017-11-24T12:12:41.928Z,385
2017-11-24T12:13:51.701Z,380
2017-11-24T12:15:01.715Z,385
2017-11-24T12:16:11.730Z,390
2017-11-24T12:17:21.749Z,395
2017-11-24T12:18:31.763Z,405
2017-11-24T12:19:41.791Z,400
2017-11-24T12:20:51.268Z,405
2017-11-24T12:22:01.294Z,400
2017-11-24T12:23:11.068Z,410
2017-11-24T12:24:21.097Z,435
2017-11-24T12:25:30.834Z,460
2017-11-24T12:26:40.885Z,460
2017-11-24T12:27:50.913Z,460
2017-11-24T12:29:00.949Z,465
2017-11-24T12:30:10.697Z,480
2017-11-24T12:31:22.717Z,495
2017-11-24T12:32:32.756Z,505
2017-11-24T12:33:42.766Z,555
2017-11-24T12:34:52.796Z,680
2017-11-24T12:36:02.813Z,725
2017-11-24T12:37:12.014Z,675
2017-11-24T12:38:22.032Z,610
2017-11-24T12:39:32.046Z,575
2017-11-24T12:40:42.059Z,575
2017-11-24T12:41:52.073Z,570
2017-11-24T12:43:02.086Z,565
2017-11-24T12:44:11.831Z,550
2017-11-24T12:45:21.305Z,540
2017-11-24T12:46:31.328Z,535
2017-11-24T12:47:41.363Z,540
2017-11-24T12:48:51.417Z,540
2017-11-24T12:50:01.430Z,540
2017-11-24T12:51:11.449Z,550
2017-11-24T12:52:21.195Z,540
2017-11-24T12:53:31.245Z,535
2017-11-24T12:54:41.276Z,530
2017-11-24T12:55:51.302Z,525
2017-11-24T12:57:01.046Z,520
2017-11-24T12:58:10.790Z,525
2017-11-24T12:59:20.280Z,515
2017-11-24T13:00:30.293Z,510
2017-11-24T13:01:40.313Z,510
2017-11-24T13:02:50.338Z,515
2017-11-24T13:04:00.381Z,505
2017-11-24T13:05:10.126Z,420
2017-11-24T13:06:20.144Z,275
2017-11-24T13:07:30.175Z,215
2017-11-24T13:08:40.189Z,195
2017-11-24T13:09:49.935Z,180
2017-11-24T13:10:59.965Z,185
2017-11-24T13:12:09.981Z,205
2017-11-24T13:13:20.009Z,200
2017-11-24T13:14:30.029Z,155
2017-11-24T13:15:40.056Z,140
2017-11-24T13:16:50.074Z,145
2017-11-24T13:17:59.817Z,140
2017-11-24T13:19:09.570Z,125
2017-11-24T13:20:19.589Z,130
2017-11-24T13:21:29.345Z,125
2017-11-24T13:22:39.360Z,125
2017-11-24T13:23:49.103Z,115
2017-11-24T13:24:59.117Z,110
2017-11-24T13:26:09.126Z,105
2017-11-24T13:27:18.867Z,105
2017-11-24T13:28:28.884Z,95
2017-11-24T13:29:38.900Z,90
2017-11-24T13:30:48.914Z,85
2017-11-24T13:31:58.930Z,80
2017-11-24T13:33:08.944Z,75
2017-11-24T13:34:18.964Z,70
2017-11-24T13:35:28.217Z,75
2017-11-24T13:36:38.255Z,70
2017-11-24T13:37:48.002Z,65
2017-11-24T13:38:58.014Z,65
2017-11-24T13:40:07.754Z,60
2017-11-24T13:41:17.492Z,60
2017-11-24T13:42:27.505Z,60
2017-11-24T13:43:37.247Z,55
2017-11-24T13:44:47.004Z,55
2017-11-24T13:45:57.006Z,55
2017-11-24T13:47:07.029Z,55
2017-11-24T13:48:17.050Z,55
2017-11-24T13:49:27.058Z,50
2017-11-24T13:50:37.090Z,50
2017-11-24T13:51:46.570Z,50
2017-11-24T13:52:56.318Z,45
2017-11-24T13:54:06.345Z,45
2017-11-24T13:55:16.379Z,45
2017-11-24T13:56:26.389Z,45
2017-11-24T13:57:36.397Z,40
2017-11-24T13:58:45.864Z,40
2017-11-24T13:59:55.871Z,40
2017-11-24T14:01:05.903Z,40
2017-11-24T14:02:15.918Z,35
2017-11-24T14:03:25.927Z,35
2017-11-24T14:04:35.948Z,35
2017-11-24T14:05:45.999Z,30
2017-11-24T14:06:56.020Z,30
2017-11-24T14:08:05.755Z,30
2017-11-24T14:09:15.495Z,30
2017-11-24T14:10:25.255Z,30
2017-11-24T14:11:35.003Z,30
2017-11-24T14:12:44.734Z,25
2017-11-24T14:13:54.755Z,25
2017-11-24T14:15:04.780Z,25
2017-11-24T14:16:14.798Z,20
2017-11-24T14:17:24.541Z,20
2017-11-24T14:18:34.292Z,20
2017-11-24T14:19:44.303Z,20
2017-11-24T14:20:54.052Z,20
2017-11-24T14:22:04.068Z,15
2017-11-24T14:23:13.815Z,15
2017-11-24T14:24:23.560Z,15
2017-11-24T14:25:33.562Z,15
2017-11-24T14:26:43.309Z,15
2017-11-24T14:27:53.320Z,10
2017-11-24T14:29:03.066Z,10
2017-11-24T14:30:12.819Z,10
2017-11-24T14:31:22.822Z,10
2017-11-24T14:32:32.838Z,10
2017-11-24T14:33:42.848Z,10
2017-11-24T14:34:52.862Z,10
2017-11-24T14:36:02.873Z,5
2017-11-24T14:37:12.888Z,5
2017-11-24T14:38:22.620Z,5
2017-11-24T14:39:32.626Z,5
2017-11-24T14:40:42.636Z,5
2017-11-24T14:41:52.371Z,5
2017-11-24T14:43:02.379Z,5
2017-11-24T14:44:13.436Z,0
2017-11-24T14:45:23.443Z,0
2017-11-24T14:46:33.189Z,0
2017-11-24T14:47:42.927Z,0
2017-11-24T14:48:52.939Z,0
2017-11-24T14:50:02.696Z,0
2017-11-24T14:51:12.703Z,0
2017-11-24T14:52:22.718Z,0
2017-11-24T14:53:32.726Z,0
2017-11-24T14:54:42.730Z,0
2017-11-24T14:55:52.745Z,0
2017-11-24T14:57:02.750Z,0
2017-11-24T14:58:12.491Z,0
2017-11-24T14:59:22.500Z,0
2017-11-24T15:00:32.502Z,0
2017-11-24T15:01:42.509Z,0
2017-11-24T15:02:52.246Z,0
2017-11-24T15:04:02.266Z,0
2017-11-24T15:05:12.287Z,0
2017-11-24T15:06:22.302Z,0
2017-11-24T15:07:32.312Z,0
2017-11-24T15:08:42.316Z,0
2017-11-24T15:09:52.063Z,0
2017-11-24T15:11:02.095Z,0
2017-11-24T15:12:11.844Z,0
2017-11-24T15:13:21.583Z,0
2017-11-24T15:14:31.592Z,0
2017-11-24T15:15:41.609Z,0
2017-11-24T15:16:51.627Z,0
2017-11-24T15:18:01.644Z,0
2017-11-24T15:19:11.383Z,0
2017-11-24T15:20:22.259Z,0
2017-11-24T15:21:32.011Z,0
2017-11-24T15:22:42.034Z,0
2017-11-24T15:23:51.774Z,0
2017-11-24T15:25:01.511Z,0
2017-11-24T15:26:11.253Z,0
2017-11-24T15:27:21.250Z,0
2017-11-24T15:28:31.261Z,0
2017-11-24T15:29:41.267Z,0
2017-11-24T15:30:51.014Z,0
2017-11-24T15:32:01.028Z,0
2017-11-24T15:33:10.499Z,0
2017-11-24T15:34:20.258Z,0
2017-11-24T15:35:30.277Z,0
2017-11-24T15:36:40.287Z,0
2017-11-24T15:37:50.034Z,0
2017-11-24T15:39:00.049Z,0
2017-11-24T15:40:10.064Z,0
2017-11-24T15:41:20.073Z,0
2017-11-24T15:42:30.104Z,0
2017-11-24T15:43:39.846Z,0
2017-11-24T15:44:49.872Z,0
2017-11-24T15:45:59.919Z,0
2017-11-24T15:47:09.673Z,0
2017-11-24T15:48:19.684Z,0
2017-11-24T15:49:28.901Z,0
2017-11-24T15:50:38.644Z,0
2017-11-24T15:51:48.661Z,0
2017-11-24T15:52:58.681Z,0
2017-11-24T15:54:08.418Z,0
2017-11-24T15:55:18.440Z,0
2017-11-24T15:56:28.213Z,0
2017-11-24T15:57:38.266Z,0
2017-11-24T15:58:48.277Z,0
2017-11-24T15:59:58.314Z,0
2017-11-24T16:01:08.343Z,0
2017-11-24T16:02:18.353Z,0
2017-11-24T16:03:28.366Z,0
2017-11-24T16:04:38.377Z,0
2017-11-24T16:05:48.401Z,0
2017-11-24T16:06:58.147Z,0
2017-11-24T16:08:08.170Z,0
2017-11-24T16:09:18.189Z,0
2017-11-24T16:10:28.223Z,0
2017-11-24T16:11:38.239Z,0
2017-11-24T16:12:48.257Z,0
2017-11-24T16:13:58.007Z,0
2017-11-24T16:15:07.753Z,0
2017-11-24T16:16:17.492Z,0
2017-11-24T16:17:27.504Z,0
2017-11-24T16:18:37.249Z,0
2017-11-24T16:19:46.992Z,0
2017-11-24T16:20:57.005Z,0
2017-11-24T16:22:07.017Z,0
2017-11-24T16:23:17.055Z,0
2017-11-24T16:24:27.070Z,0
2017-11-24T16:25:36.817Z,0
2017-11-24T16:26:46.290Z,0
2017-11-24T16:27:56.311Z,0
2017-11-24T16:29:06.318Z,0
2017-11-24T16:30:16.340Z,0
2017-11-24T16:31:26.078Z,0
2017-11-24T16:32:36.099Z,0
2017-11-24T16:33:46.104Z,0
2017-11-24T16:34:56.117Z,0
2017-11-24T16:36:06.140Z,0
2017-11-24T16:37:16.186Z,0
2017-11-24T16:38:26.196Z,0
2017-11-24T16:39:36.205Z,0
2017-11-24T16:40:45.940Z,0
2017-11-24T16:41:55.955Z,0
2017-11-24T16:43:05.964Z,0
2017-11-24T16:44:15.983Z,0
2017-11-24T16:45:25.445Z,0
2017-11-24T16:46:35.182Z,0
2017-11-24T16:47:45.188Z,0
2017-11-24T16:48:54.962Z,0
2017-11-24T16:50:04.977Z,0
2017-11-24T16:51:14.456Z,0
2017-11-24T16:52:24.463Z,0